sensor_id;sensor_type;location;lat;lon;timestamp;P1;durP1;ratioP1;P2;durP2;ratioP2
63406;SDS011;49543;45.892;10.838;2022-10-30T07:53:33;8.93;;;3.08;;
63406;SDS011;49543;45.892;10.838;2022-10-30T07:55:58;9.60;;;3.58;;
63406;SDS011;49543;45.892;10.838;2022-10-30T07:58:24;7.13;;;3.25;;
63406;SDS011;49543;45.892;10.838;2022-10-30T08:00:49;6.22;;;3.10;;
63406;SDS011;49543;45.892;10.838;2022-10-30T08:03:15;5.53;;;3.13;;
63406;SDS011;49543;45.892;10.838;2022-10-30T08:05:41;8.23;;;3.63;;
63406;SDS011;49543;45.892;10.838;2022-10-30T08:08:06;8.85;;;3.22;;
63406;SDS011;49543;45.892;10.838;2022-10-30T08:10:32;11.65;;;4.40;;
63406;SDS011;49543;45.892;10.838;2022-10-30T08:12:58;9.02;;;3.50;;
63406;SDS011;49543;45.892;10.838;2022-10-30T08:15:24;6.03;;;2.97;;
63406;SDS011;49543;45.892;10.838;2022-10-30T08:17:50;8.07;;;3.55;;
63406;SDS011;49543;45.892;10.838;2022-10-30T08:20:16;8.10;;;2.90;;
63406;SDS011;49543;45.892;10.838;2022-10-30T08:25:16;7.32;;;2.92;;
63406;SDS011;49543;45.892;10.838;2022-10-30T08:27:56;9.50;;;3.00;;
63406;SDS011;49543;45.892;10.838;2022-10-30T08:30:22;5.55;;;3.25;;
63406;SDS011;49543;45.892;10.838;2022-10-30T08:32:49;6.65;;;3.20;;
63406;SDS011;49543;45.892;10.838;2022-10-30T08:35:15;4.28;;;2.90;;
63406;SDS011;49543;45.892;10.838;2022-10-30T08:37:41;9.20;;;3.53;;
63406;SDS011;49543;45.892;10.838;2022-10-30T08:40:08;7.65;;;2.88;;
63406;SDS011;49543;45.892;10.838;2022-10-30T08:42:34;6.90;;;3.35;;
63406;SDS011;49543;45.892;10.838;2022-10-30T08:45:00;8.60;;;3.30;;
63406;SDS011;49543;45.892;10.838;2022-10-30T08:47:25;9.13;;;3.25;;
63406;SDS011;49543;45.892;10.838;2022-10-30T08:49:51;6.35;;;3.20;;
63406;SDS011;49543;45.892;10.838;2022-10-30T08:52:16;6.80;;;3.63;;
63406;SDS011;49543;45.892;10.838;2022-10-30T08:54:42;9.70;;;3.30;;
63406;SDS011;49543;45.892;10.838;2022-10-30T08:57:07;5.70;;;2.85;;
63406;SDS011;49543;45.892;10.838;2022-10-30T08:59:33;9.43;;;2.90;;
63406;SDS011;49543;45.892;10.838;2022-10-30T09:01:58;6.35;;;3.78;;
63406;SDS011;49543;45.892;10.838;2022-10-30T09:04:23;5.90;;;3.33;;
63406;SDS011;49543;45.892;10.838;2022-10-30T09:06:49;7.10;;;3.45;;
63406;SDS011;49543;45.892;10.838;2022-10-30T09:09:14;8.80;;;3.00;;
63406;SDS011;49543;45.892;10.838;2022-10-30T09:11:40;5.63;;;3.00;;
63406;SDS011;49543;45.892;10.838;2022-10-30T09:14:05;10.80;;;3.38;;
63406;SDS011;49543;45.892;10.838;2022-10-30T09:16:31;5.47;;;3.55;;
63406;SDS011;49543;45.892;10.838;2022-10-30T09:18:56;5.22;;;3.28;;
63406;SDS011;49543;45.892;10.838;2022-10-30T09:21:21;9.73;;;2.67;;
63406;SDS011;49543;45.892;10.838;2022-10-30T09:23:47;5.85;;;3.53;;
63406;SDS011;49543;45.892;10.838;2022-10-30T09:26:12;7.05;;;3.15;;
63406;SDS011;49543;45.892;10.838;2022-10-30T09:28:38;7.43;;;3.38;;
63406;SDS011;49543;45.892;10.838;2022-10-30T09:31:03;6.47;;;3.10;;
63406;SDS011;49543;45.892;10.838;2022-10-30T09:33:29;8.07;;;3.22;;
63406;SDS011;49543;45.892;10.838;2022-10-30T09:35:55;8.75;;;3.72;;
63406;SDS011;49543;45.892;10.838;2022-10-30T09:38:21;6.95;;;3.30;;
63406;SDS011;49543;45.892;10.838;2022-10-30T09:57:29;10.35;;;3.38;;
63406;SDS011;49543;45.892;10.838;2022-10-30T10:07:48;6.70;;;3.25;;
63406;SDS011;49543;45.892;10.838;2022-10-30T10:10:21;6.72;;;2.97;;
63406;SDS011;49543;45.892;10.838;2022-10-30T10:12:53;5.63;;;2.78;;
63406;SDS011;49543;45.892;10.838;2022-10-30T10:15:30;5.93;;;2.88;;
63406;SDS011;49543;45.892;10.838;2022-10-30T10:18:00;7.45;;;2.95;;
63406;SDS011;49543;45.892;10.838;2022-10-30T10:21:05;10.27;;;3.70;;
63406;SDS011;49543;45.892;10.838;2022-10-30T10:23:26;8.85;;;3.20;;
63406;SDS011;49543;45.892;10.838;2022-10-30T10:26:00;7.95;;;3.42;;
63406;SDS011;49543;45.892;10.838;2022-10-30T10:50:32;5.97;;;2.80;;
63406;SDS011;49543;45.892;10.838;2022-10-30T10:55:41;7.80;;;4.28;;
63406;SDS011;49543;45.892;10.838;2022-10-30T10:58:14;10.15;;;4.35;;
63406;SDS011;49543;45.892;10.838;2022-10-30T11:00:41;6.85;;;3.25;;
63406;SDS011;49543;45.892;10.838;2022-10-30T11:03:14;7.15;;;3.15;;
63406;SDS011;49543;45.892;10.838;2022-10-30T11:08:26;6.78;;;2.70;;
63406;SDS011;49543;45.892;10.838;2022-10-30T11:10:55;6.88;;;3.30;;
63406;SDS011;49543;45.892;10.838;2022-10-30T11:13:23;5.20;;;2.75;;
63406;SDS011;49543;45.892;10.838;2022-10-30T11:18:37;4.97;;;2.70;;
63406;SDS011;49543;45.892;10.838;2022-10-30T11:21:10;7.72;;;3.28;;
63406;SDS011;49543;45.892;10.838;2022-10-30T11:23:42;5.55;;;2.97;;
63406;SDS011;49543;45.892;10.838;2022-10-30T11:28:57;16.23;;;3.75;;
63406;SDS011;49543;45.892;10.838;2022-10-30T11:36:45;7.03;;;2.83;;
63406;SDS011;49543;45.892;10.838;2022-10-30T11:39:17;6.30;;;3.60;;
63406;SDS011;49543;45.892;10.838;2022-10-30T11:42:26;6.07;;;3.88;;
63406;SDS011;49543;45.892;10.838;2022-10-30T11:44:40;10.43;;;3.97;;
63406;SDS011;49543;45.892;10.838;2022-10-30T11:47:15;8.32;;;3.03;;
63406;SDS011;49543;45.892;10.838;2022-10-30T11:49:50;6.30;;;3.10;;
63406;SDS011;49543;45.892;10.838;2022-10-30T11:52:20;8.68;;;3.50;;
63406;SDS011;49543;45.892;10.838;2022-10-30T11:55:34;7.05;;;3.40;;
63406;SDS011;49543;45.892;10.838;2022-10-30T12:00:16;5.82;;;3.20;;
63406;SDS011;49543;45.892;10.838;2022-10-30T12:02:45;7.88;;;3.15;;
63406;SDS011;49543;45.892;10.838;2022-10-30T12:07:50;9.05;;;3.70;;
63406;SDS011;49543;45.892;10.838;2022-10-30T12:10:23;6.18;;;3.30;;
63406;SDS011;49543;45.892;10.838;2022-10-30T12:12:49;8.65;;;3.10;;
63406;SDS011;49543;45.892;10.838;2022-10-30T12:15:20;11.07;;;3.30;;
63406;SDS011;49543;45.892;10.838;2022-10-30T12:17:50;8.55;;;3.00;;
63406;SDS011;49543;45.892;10.838;2022-10-30T12:20:26;8.90;;;2.90;;
63406;SDS011;49543;45.892;10.838;2022-10-30T12:22:53;6.85;;;2.90;;
63406;SDS011;49543;45.892;10.838;2022-10-30T12:25:23;5.97;;;2.83;;
63406;SDS011;49543;45.892;10.838;2022-10-30T12:30:28;6.80;;;2.80;;
63406;SDS011;49543;45.892;10.838;2022-10-30T12:32:57;6.68;;;3.22;;
63406;SDS011;49543;45.892;10.838;2022-10-30T12:41:24;9.13;;;2.63;;
63406;SDS011;49543;45.892;10.838;2022-10-30T12:43:56;8.93;;;3.13;;
63406;SDS011;49543;45.892;10.838;2022-10-30T12:49:09;6.93;;;2.67;;
63406;SDS011;49543;45.892;10.838;2022-10-30T12:54:50;6.68;;;2.38;;
63406;SDS011;49543;45.892;10.838;2022-10-30T12:57:24;7.72;;;2.75;;
63406;SDS011;49543;45.892;10.838;2022-10-30T12:59:58;11.27;;;3.50;;
63406;SDS011;49543;45.892;10.838;2022-10-30T13:05:15;5.93;;;3.10;;
63406;SDS011;49543;45.892;10.838;2022-10-30T13:10:37;7.55;;;2.80;;
63406;SDS011;49543;45.892;10.838;2022-10-30T13:13:13;6.45;;;3.15;;
63406;SDS011;49543;45.892;10.838;2022-10-30T13:15:46;5.78;;;2.80;;
63406;SDS011;49543;45.892;10.838;2022-10-30T13:18:19;5.75;;;2.67;;
63406;SDS011;49543;45.892;10.838;2022-10-30T13:24:07;5.85;;;2.78;;
63406;SDS011;49543;45.892;10.838;2022-10-30T13:35:07;5.93;;;2.90;;
63406;SDS011;49543;45.892;10.838;2022-10-30T13:43:23;10.32;;;3.08;;
63406;SDS011;49543;45.892;10.838;2022-10-30T13:54:08;6.82;;;2.95;;
63406;SDS011;49543;45.892;10.838;2022-10-30T13:56:37;5.93;;;2.80;;
63406;SDS011;49543;45.892;10.838;2022-10-30T14:01:35;5.18;;;2.83;;
63406;SDS011;49543;45.892;10.838;2022-10-30T14:04:11;8.68;;;3.65;;
63406;SDS011;49543;45.892;10.838;2022-10-30T14:20:35;6.65;;;2.75;;
63406;SDS011;49543;45.892;10.838;2022-10-30T14:23:11;7.07;;;3.72;;
63406;SDS011;49543;45.892;10.838;2022-10-30T14:25:38;6.30;;;2.63;;
63406;SDS011;49543;45.892;10.838;2022-10-30T14:28:04;5.57;;;2.65;;
63406;SDS011;49543;45.892;10.838;2022-10-30T14:30:38;7.30;;;2.78;;
63406;SDS011;49543;45.892;10.838;2022-10-30T14:33:17;6.63;;;2.90;;
63406;SDS011;49543;45.892;10.838;2022-10-30T14:36:14;6.30;;;3.25;;
63406;SDS011;49543;45.892;10.838;2022-10-30T14:39:24;4.60;;;2.60;;
63406;SDS011;49543;45.892;10.838;2022-10-30T14:51:08;7.80;;;2.95;;
63406;SDS011;49543;45.892;10.838;2022-10-30T14:58:39;3.72;;;2.45;;
63406;SDS011;49543;45.892;10.838;2022-10-30T15:03:39;5.70;;;2.85;;
63406;SDS011;49543;45.892;10.838;2022-10-30T15:09:39;9.20;;;3.38;;
63406;SDS011;49543;45.892;10.838;2022-10-30T15:14:44;5.75;;;2.60;;
63406;SDS011;49543;45.892;10.838;2022-10-30T15:17:33;6.80;;;2.45;;
63406;SDS011;49543;45.892;10.838;2022-10-30T15:20:17;4.70;;;2.53;;
63406;SDS011;49543;45.892;10.838;2022-10-30T15:22:50;6.53;;;2.45;;
63406;SDS011;49543;45.892;10.838;2022-10-30T15:25:18;6.22;;;2.75;;
63406;SDS011;49543;45.892;10.838;2022-10-30T15:27:47;8.88;;;2.97;;
63406;SDS011;49543;45.892;10.838;2022-10-30T15:30:19;6.45;;;2.78;;
63406;SDS011;49543;45.892;10.838;2022-10-30T15:32:46;8.70;;;2.65;;
63406;SDS011;49543;45.892;10.838;2022-10-30T15:35:19;10.50;;;2.97;;
63406;SDS011;49543;45.892;10.838;2022-10-30T15:37:59;10.27;;;4.00;;
63406;SDS011;49543;45.892;10.838;2022-10-30T15:40:29;6.25;;;3.10;;
63406;SDS011;49543;45.892;10.838;2022-10-30T15:42:57;7.57;;;3.38;;
63406;SDS011;49543;45.892;10.838;2022-10-30T15:45:27;11.48;;;3.50;;
63406;SDS011;49543;45.892;10.838;2022-10-30T15:48:44;8.90;;;3.20;;
63406;SDS011;49543;45.892;10.838;2022-10-30T15:53:32;7.03;;;2.80;;
63406;SDS011;49543;45.892;10.838;2022-10-30T15:55:59;8.88;;;3.10;;
63406;SDS011;49543;45.892;10.838;2022-10-30T15:58:24;6.68;;;3.38;;
63406;SDS011;49543;45.892;10.838;2022-10-30T16:00:59;9.95;;;3.00;;
63406;SDS011;49543;45.892;10.838;2022-10-30T16:03:26;4.15;;;2.60;;
63406;SDS011;49543;45.892;10.838;2022-10-30T16:08:55;6.38;;;2.85;;
63406;SDS011;49543;45.892;10.838;2022-10-30T16:11:21;7.13;;;2.80;;
63406;SDS011;49543;45.892;10.838;2022-10-30T16:13:47;10.57;;;4.47;;
63406;SDS011;49543;45.892;10.838;2022-10-30T16:18:45;7.72;;;3.00;;
63406;SDS011;49543;45.892;10.838;2022-10-30T16:21:13;7.75;;;2.47;;
63406;SDS011;49543;45.892;10.838;2022-10-30T16:23:45;8.10;;;2.80;;
63406;SDS011;49543;45.892;10.838;2022-10-30T16:29:06;5.57;;;3.00;;
63406;SDS011;49543;45.892;10.838;2022-10-30T16:31:42;7.78;;;2.65;;
63406;SDS011;49543;45.892;10.838;2022-10-30T16:34:24;7.78;;;3.28;;
63406;SDS011;49543;45.892;10.838;2022-10-30T16:36:55;7.82;;;3.78;;
63406;SDS011;49543;45.892;10.838;2022-10-30T16:39:22;10.05;;;3.35;;
63406;SDS011;49543;45.892;10.838;2022-10-30T16:41:49;9.15;;;3.78;;
63406;SDS011;49543;45.892;10.838;2022-10-30T16:44:16;8.75;;;3.35;;
63406;SDS011;49543;45.892;10.838;2022-10-30T16:46:53;9.73;;;3.45;;
63406;SDS011;49543;45.892;10.838;2022-10-30T16:49:24;12.25;;;3.58;;
63406;SDS011;49543;45.892;10.838;2022-10-30T16:52:01;7.88;;;3.58;;
63406;SDS011;49543;45.892;10.838;2022-10-30T16:54:32;8.25;;;3.75;;
63406;SDS011;49543;45.892;10.838;2022-10-30T16:57:02;8.40;;;3.03;;
63406;SDS011;49543;45.892;10.838;2022-10-30T16:59:36;6.57;;;2.63;;
63406;SDS011;49543;45.892;10.838;2022-10-30T17:02:41;9.40;;;3.40;;
63406;SDS011;49543;45.892;10.838;2022-10-30T17:05:10;8.38;;;3.13;;
63406;SDS011;49543;45.892;10.838;2022-10-30T17:07:53;5.53;;;3.00;;
63406;SDS011;49543;45.892;10.838;2022-10-30T17:10:34;9.02;;;2.90;;
63406;SDS011;49543;45.892;10.838;2022-10-30T17:15:57;9.98;;;3.65;;
63406;SDS011;49543;45.892;10.838;2022-10-30T17:18:29;7.95;;;3.50;;
63406;SDS011;49543;45.892;10.838;2022-10-30T17:21:12;6.10;;;3.00;;
63406;SDS011;49543;45.892;10.838;2022-10-30T17:23:43;6.35;;;2.67;;
63406;SDS011;49543;45.892;10.838;2022-10-30T17:26:11;6.97;;;2.78;;
63406;SDS011;49543;45.892;10.838;2022-10-30T17:28:37;8.23;;;3.15;;
63406;SDS011;49543;45.892;10.838;2022-10-30T17:34:10;12.52;;;3.38;;
63406;SDS011;49543;45.892;10.838;2022-10-30T17:36:38;6.82;;;3.50;;
63406;SDS011;49543;45.892;10.838;2022-10-30T17:39:04;7.63;;;3.13;;
63406;SDS011;49543;45.892;10.838;2022-10-30T17:41:29;7.47;;;3.30;;
63406;SDS011;49543;45.892;10.838;2022-10-30T17:43:55;8.80;;;3.50;;
63406;SDS011;49543;45.892;10.838;2022-10-30T17:46:21;8.23;;;4.20;;
63406;SDS011;49543;45.892;10.838;2022-10-30T17:48:47;7.85;;;4.03;;
63406;SDS011;49543;45.892;10.838;2022-10-30T17:51:12;9.40;;;4.28;;
63406;SDS011;49543;45.892;10.838;2022-10-30T17:53:39;7.88;;;4.28;;
63406;SDS011;49543;45.892;10.838;2022-10-30T17:56:12;11.25;;;4.90;;
63406;SDS011;49543;45.892;10.838;2022-10-30T17:58:40;12.27;;;4.88;;
63406;SDS011;49543;45.892;10.838;2022-10-30T18:01:06;10.13;;;6.00;;
63406;SDS011;49543;45.892;10.838;2022-10-30T18:03:33;9.98;;;5.40;;
63406;SDS011;49543;45.892;10.838;2022-10-30T18:05:59;14.27;;;4.57;;
63406;SDS011;49543;45.892;10.838;2022-10-30T18:08:26;11.52;;;3.78;;
63406;SDS011;49543;45.892;10.838;2022-10-30T18:10:52;5.28;;;2.92;;
63406;SDS011;49543;45.892;10.838;2022-10-30T18:13:17;8.30;;;3.03;;
63406;SDS011;49543;45.892;10.838;2022-10-30T18:15:45;6.30;;;3.10;;
63406;SDS011;49543;45.892;10.838;2022-10-30T18:18:15;5.50;;;2.80;;
63406;SDS011;49543;45.892;10.838;2022-10-30T18:20:41;9.13;;;3.88;;
63406;SDS011;49543;45.892;10.838;2022-10-30T18:23:10;8.15;;;3.28;;
63406;SDS011;49543;45.892;10.838;2022-10-30T18:25:43;6.75;;;3.17;;
63406;SDS011;49543;45.892;10.838;2022-10-30T18:28:08;9.35;;;4.40;;
63406;SDS011;49543;45.892;10.838;2022-10-30T18:30:34;9.93;;;4.28;;
63406;SDS011;49543;45.892;10.838;2022-10-30T18:33:00;7.47;;;4.07;;
63406;SDS011;49543;45.892;10.838;2022-10-30T18:35:35;6.38;;;4.10;;
63406;SDS011;49543;45.892;10.838;2022-10-30T18:38:01;8.75;;;3.55;;
63406;SDS011;49543;45.892;10.838;2022-10-30T18:40:27;6.88;;;3.78;;
63406;SDS011;49543;45.892;10.838;2022-10-30T18:42:54;8.77;;;3.50;;
63406;SDS011;49543;45.892;10.838;2022-10-30T18:47:48;9.07;;;3.70;;
63406;SDS011;49543;45.892;10.838;2022-10-30T18:50:13;7.35;;;4.15;;
63406;SDS011;49543;45.892;10.838;2022-10-30T18:52:40;10.30;;;4.10;;
63406;SDS011;49543;45.892;10.838;2022-10-30T18:55:24;9.10;;;3.58;;
63406;SDS011;49543;45.892;10.838;2022-10-30T18:57:58;11.27;;;3.42;;
63406;SDS011;49543;45.892;10.838;2022-10-30T19:00:24;9.88;;;3.70;;
63406;SDS011;49543;45.892;10.838;2022-10-30T19:02:52;7.13;;;3.30;;
63406;SDS011;49543;45.892;10.838;2022-10-30T19:05:33;12.50;;;4.07;;
63406;SDS011;49543;45.892;10.838;2022-10-30T19:08:02;7.88;;;3.33;;
63406;SDS011;49543;45.892;10.838;2022-10-30T19:10:29;7.05;;;3.55;;
63406;SDS011;49543;45.892;10.838;2022-10-30T19:12:58;12.40;;;5.78;;
63406;SDS011;49543;45.892;10.838;2022-10-30T19:15:33;11.60;;;6.38;;
63406;SDS011;49543;45.892;10.838;2022-10-30T19:18:01;8.90;;;4.25;;
63406;SDS011;49543;45.892;10.838;2022-10-30T19:20:27;8.68;;;3.90;;
63406;SDS011;49543;45.892;10.838;2022-10-30T19:22:54;6.97;;;3.88;;
63406;SDS011;49543;45.892;10.838;2022-10-30T19:27:45;8.38;;;4.32;;
63406;SDS011;49543;45.892;10.838;2022-10-30T19:30:11;8.70;;;3.63;;
63406;SDS011;49543;45.892;10.838;2022-10-30T19:32:36;7.20;;;3.72;;
63406;SDS011;49543;45.892;10.838;2022-10-30T19:35:02;9.35;;;3.50;;
63406;SDS011;49543;45.892;10.838;2022-10-30T19:37:29;6.70;;;4.25;;
63406;SDS011;49543;45.892;10.838;2022-10-30T19:39:54;12.07;;;5.07;;
63406;SDS011;49543;45.892;10.838;2022-10-30T19:42:20;9.05;;;3.40;;
63406;SDS011;49543;45.892;10.838;2022-10-30T19:44:45;6.30;;;3.65;;
63406;SDS011;49543;45.892;10.838;2022-10-30T19:47:11;7.32;;;3.15;;
63406;SDS011;49543;45.892;10.838;2022-10-30T19:49:36;6.30;;;2.80;;
63406;SDS011;49543;45.892;10.838;2022-10-30T19:52:02;9.10;;;2.97;;
63406;SDS011;49543;45.892;10.838;2022-10-30T19:54:28;7.68;;;3.55;;
63406;SDS011;49543;45.892;10.838;2022-10-30T19:56:53;8.93;;;3.90;;
63406;SDS011;49543;45.892;10.838;2022-10-30T19:59:19;8.02;;;4.00;;
63406;SDS011;49543;45.892;10.838;2022-10-30T20:01:44;7.97;;;4.07;;
63406;SDS011;49543;45.892;10.838;2022-10-30T20:04:10;6.78;;;3.85;;
63406;SDS011;49543;45.892;10.838;2022-10-30T20:06:35;6.50;;;3.92;;
63406;SDS011;49543;45.892;10.838;2022-10-30T20:09:00;7.68;;;4.65;;
63406;SDS011;49543;45.892;10.838;2022-10-30T20:11:27;7.40;;;4.45;;
63406;SDS011;49543;45.892;10.838;2022-10-30T20:13:53;9.43;;;4.88;;
63406;SDS011;49543;45.892;10.838;2022-10-30T20:16:18;9.20;;;4.70;;
63406;SDS011;49543;45.892;10.838;2022-10-30T20:18:43;12.38;;;8.68;;
63406;SDS011;49543;45.892;10.838;2022-10-30T20:21:10;16.67;;;8.75;;
63406;SDS011;49543;45.892;10.838;2022-10-30T20:23:37;12.18;;;6.20;;
63406;SDS011;49543;45.892;10.838;2022-10-30T20:26:06;8.25;;;4.78;;
63406;SDS011;49543;45.892;10.838;2022-10-30T20:28:44;8.05;;;4.45;;
63406;SDS011;49543;45.892;10.838;2022-10-30T20:31:09;7.43;;;4.28;;
63406;SDS011;49543;45.892;10.838;2022-10-30T20:33:36;9.18;;;3.90;;
63406;SDS011;49543;45.892;10.838;2022-10-30T20:36:02;7.30;;;3.75;;
63406;SDS011;49543;45.892;10.838;2022-10-30T20:38:29;9.23;;;3.10;;
63406;SDS011;49543;45.892;10.838;2022-10-30T20:40:57;7.20;;;3.05;;
63406;SDS011;49543;45.892;10.838;2022-10-30T20:43:26;7.30;;;3.25;;
63406;SDS011;49543;45.892;10.838;2022-10-30T20:45:54;6.82;;;2.97;;
63406;SDS011;49543;45.892;10.838;2022-10-30T20:48:19;6.00;;;3.08;;
63406;SDS011;49543;45.892;10.838;2022-10-30T20:50:45;8.88;;;3.30;;
63406;SDS011;49543;45.892;10.838;2022-10-30T20:53:11;7.80;;;3.42;;
63406;SDS011;49543;45.892;10.838;2022-10-30T20:55:38;8.70;;;3.60;;
63406;SDS011;49543;45.892;10.838;2022-10-30T20:58:04;9.07;;;3.45;;
63406;SDS011;49543;45.892;10.838;2022-10-30T21:00:30;9.23;;;4.57;;
63406;SDS011;49543;45.892;10.838;2022-10-30T21:02:56;7.90;;;3.92;;
63406;SDS011;49543;45.892;10.838;2022-10-30T21:05:21;13.27;;;4.22;;
63406;SDS011;49543;45.892;10.838;2022-10-30T21:07:47;8.02;;;3.78;;
63406;SDS011;49543;45.892;10.838;2022-10-30T21:10:12;10.63;;;4.22;;
63406;SDS011;49543;45.892;10.838;2022-10-30T21:12:38;9.18;;;3.90;;
63406;SDS011;49543;45.892;10.838;2022-10-30T21:15:03;5.75;;;3.20;;
63406;SDS011;49543;45.892;10.838;2022-10-30T21:17:30;8.18;;;3.60;;
63406;SDS011;49543;45.892;10.838;2022-10-30T21:19:57;8.18;;;3.75;;
63406;SDS011;49543;45.892;10.838;2022-10-30T21:22:22;9.50;;;3.88;;
63406;SDS011;49543;45.892;10.838;2022-10-30T21:24:48;7.85;;;3.70;;
63406;SDS011;49543;45.892;10.838;2022-10-30T21:27:13;7.47;;;4.25;;
63406;SDS011;49543;45.892;10.838;2022-10-30T21:29:38;13.98;;;9.23;;
63406;SDS011;49543;45.892;10.838;2022-10-30T21:32:04;14.52;;;8.52;;
63406;SDS011;49543;45.892;10.838;2022-10-30T21:34:29;13.73;;;5.55;;
63406;SDS011;49543;45.892;10.838;2022-10-30T21:36:55;11.32;;;5.07;;
63406;SDS011;49543;45.892;10.838;2022-10-30T21:39:20;8.07;;;4.05;;
63406;SDS011;49543;45.892;10.838;2022-10-30T21:41:46;8.32;;;4.85;;
63406;SDS011;49543;45.892;10.838;2022-10-30T21:44:11;8.30;;;3.80;;
63406;SDS011;49543;45.892;10.838;2022-10-30T21:46:39;15.75;;;3.40;;
63406;SDS011;49543;45.892;10.838;2022-10-30T21:49:05;8.55;;;3.80;;
63406;SDS011;49543;45.892;10.838;2022-10-30T21:51:31;10.02;;;3.35;;
63406;SDS011;49543;45.892;10.838;2022-10-30T21:53:57;9.82;;;3.53;;
63406;SDS011;49543;45.892;10.838;2022-10-30T21:56:24;6.70;;;3.80;;
63406;SDS011;49543;45.892;10.838;2022-10-30T21:58:51;9.23;;;4.03;;
63406;SDS011;49543;45.892;10.838;2022-10-30T22:03:45;5.28;;;3.25;;
63406;SDS011;49543;45.892;10.838;2022-10-30T22:06:12;6.07;;;3.03;;
63406;SDS011;49543;45.892;10.838;2022-10-30T22:08:39;5.18;;;2.88;;
63406;SDS011;49543;45.892;10.838;2022-10-30T22:11:05;5.90;;;3.42;;
63406;SDS011;49543;45.892;10.838;2022-10-30T22:13:32;8.15;;;3.72;;
63406;SDS011;49543;45.892;10.838;2022-10-30T22:15:58;7.20;;;3.20;;
63406;SDS011;49543;45.892;10.838;2022-10-30T22:18:23;7.35;;;2.80;;
63406;SDS011;49543;45.892;10.838;2022-10-30T22:20:49;5.45;;;3.17;;
63406;SDS011;49543;45.892;10.838;2022-10-30T22:23:15;9.10;;;3.83;;
63406;SDS011;49543;45.892;10.838;2022-10-30T22:25:41;5.38;;;3.30;;
63406;SDS011;49543;45.892;10.838;2022-10-30T22:28:06;10.07;;;3.03;;
63406;SDS011;49543;45.892;10.838;2022-10-30T22:30:31;9.30;;;3.60;;
63406;SDS011;49543;45.892;10.838;2022-10-30T22:32:57;6.43;;;3.50;;
63406;SDS011;49543;45.892;10.838;2022-10-30T22:35:22;7.10;;;3.40;;
63406;SDS011;49543;45.892;10.838;2022-10-30T22:37:48;6.07;;;3.42;;
63406;SDS011;49543;45.892;10.838;2022-10-30T22:40:13;10.32;;;3.60;;
63406;SDS011;49543;45.892;10.838;2022-10-30T22:42:39;12.02;;;4.88;;
63406;SDS011;49543;45.892;10.838;2022-10-30T22:45:04;9.38;;;4.03;;
63406;SDS011;49543;45.892;10.838;2022-10-30T22:47:30;9.15;;;3.75;;
63406;SDS011;49543;45.892;10.838;2022-10-30T22:49:56;8.57;;;4.53;;
63406;SDS011;49543;45.892;10.838;2022-10-30T22:52:21;12.73;;;5.40;;
63406;SDS011;49543;45.892;10.838;2022-10-30T22:54:47;11.35;;;5.07;;
63406;SDS011;49543;45.892;10.838;2022-10-30T22:57:12;12.05;;;5.32;;
